Time;durP1;ratioP1;P1;durP2;ratioP2;P2;SDS_P1;SDS_P2;PMS_P1;PMS_P2;Temp;Humidity;BMP_temperature;BMP_pressure;BME280_temperature;BME280_humidity;BME280_pressure;Samples;Min_cycle;Max_cycle;Signal;HPM_P1;HPM_P2
2020/12/13 00:01:00;;;;;;;3.37;3.07;;;5.40;96.90;;;;;;5011849;28;20222;-89
2020/12/13 00:03:27;;;;;;;2.10;2.00;;;5.40;96.50;;;;;;5011959;28;21195;-88
2020/12/13 00:05:53;;;;;;;2.33;2.13;;;5.40;96.30;;;;;;5013666;28;20206;-89
2020/12/13 00:08:20;;;;;;;2.20;2.07;;;5.40;96.10;;;;;;5010649;28;20583;-88
2020/12/13 00:10:47;;;;;;;2.20;2.10;;;5.40;96.40;;;;;;5013666;28;20235;-89
2020/12/13 00:13:13;;;;;;;2.10;1.97;;;5.30;96.70;;;;;;5010295;28;20222;-88
2020/12/13 00:15:40;;;;;;;2.50;2.30;;;5.30;96.60;;;;;;5010762;28;20221;-89
2020/12/13 00:18:06;;;;;;;2.53;2.33;;;5.30;96.10;;;;;;5010770;28;20236;-88
2020/12/13 00:20:34;;;;;;;2.33;2.13;;;5.40;96.40;;;;;;5010969;28;20203;-90
2020/12/13 00:23:00;;;;;;;1.90;1.80;;;5.40;96.20;;;;;;5012223;28;20226;-89
2020/12/13 00:25:29;;;;;;;2.57;2.37;;;5.50;95.60;;;;;;5012197;28;20246;-89
2020/12/13 00:27:55;;;;;;;2.23;2.03;;;5.60;95.20;;;;;;5012851;28;21216;-89
2020/12/13 00:30:21;;;;;;;1.60;1.50;;;5.60;95.20;;;;;;5011241;28;20233;-90
2020/12/13 00:32:48;;;;;;;2.57;2.37;;;5.50;95.20;;;;;;5011284;28;20226;-89
2020/12/13 00:35:14;;;;;;;2.03;1.93;;;5.60;95.20;;;;;;5013557;28;20207;-89
2020/12/13 00:37:42;;;;;;;2.10;2.00;;;5.60;95.50;;;;;;5010255;28;20219;-90
2020/12/13 00:40:08;;;;;;;1.80;1.70;;;5.50;95.20;;;;;;5010422;28;20221;-88
2020/12/13 00:42:35;;;;;;;2.30;2.10;;;5.50;95.40;;;;;;5013129;28;20277;-89
2020/12/13 00:45:01;;;;;;;1.60;1.50;;;5.40;95.70;;;;;;5012773;28;20203;-88
2020/12/13 00:47:28;;;;;;;1.60;1.50;;;5.40;96.10;;;;;;5027832;28;20226;-89
2020/12/13 00:49:54;;;;;;;2.17;1.93;;;5.40;96.00;;;;;;5024040;28;20696;-89
2020/12/13 00:52:21;;;;;;;1.93;1.83;;;5.50;95.80;;;;;;5013843;28;20222;-89
2020/12/13 00:54:48;;;;;;;1.87;1.77;;;5.40;95.50;;;;;;5012836;28;20305;-90
2020/12/13 00:57:14;;;;;;;1.87;1.77;;;5.40;95.90;;;;;;5012873;28;20214;-90
2020/12/13 00:59:41;;;;;;;2.73;2.53;;;5.40;95.80;;;;;;5014319;28;20223;-88
2020/12/13 01:02:07;;;;;;;2.17;2.07;;;5.50;95.80;;;;;;5030238;28;20294;-90
2020/12/13 01:04:34;;;;;;;2.30;2.10;;;5.40;95.80;;;;;;5014735;28;20198;-89
2020/12/13 01:07:03;;;;;;;3.30;2.37;;;5.40;96.10;;;;;;5008439;28;20230;-90
2020/12/13 01:09:29;;;;;;;2.10;2.00;;;5.40;96.30;;;;;;5013992;28;20986;-89
2020/12/13 01:11:57;;;;;;;2.10;1.93;;;5.50;96.10;;;;;;5012917;28;20222;-90
2020/12/13 01:14:24;;;;;;;1.40;1.30;;;5.50;95.90;;;;;;5011759;28;20869;-89
2020/12/13 01:16:50;;;;;;;1.17;1.17;;;5.50;95.50;;;;;;5020523;28;20225;-89
2020/12/13 01:19:17;;;;;;;1.50;1.40;;;5.60;95.50;;;;;;5026492;28;20203;-89
2020/12/13 01:21:43;;;;;;;1.13;1.10;;;5.60;95.30;;;;;;5023269;28;20698;-89
2020/12/13 01:24:10;;;;;;;1.30;1.20;;;5.50;95.70;;;;;;5028027;28;20206;-89
2020/12/13 01:26:36;;;;;;;2.20;2.07;;;5.50;95.90;;;;;;5014917;28;20245;-89
2020/12/13 01:29:03;;;;;;;1.90;1.77;;;5.50;96.20;;;;;;5011932;28;20654;-89
2020/12/13 01:31:30;;;;;;;1.60;1.50;;;5.50;96.10;;;;;;5025546;28;20305;-89
2020/12/13 01:33:56;;;;;;;2.37;1.50;;;5.50;96.40;;;;;;5021872;28;20510;-89
2020/12/13 01:36:23;;;;;;;2.40;1.37;;;5.40;96.30;;;;;;5023955;28;20237;-89
2020/12/13 01:38:50;;;;;;;1.23;1.13;;;5.30;96.60;;;;;;5028550;28;20210;-88
2020/12/13 01:41:17;;;;;;;1.50;1.40;;;5.30;96.90;;;;;;5032728;28;20581;-90
2020/12/13 01:43:55;;;;;;;2.17;1.97;;;5.30;97.00;;;;;;5021319;28;20237;-89
2020/12/13 01:46:23;;;;;;;3.67;1.80;;;5.30;97.20;;;;;;5020573;28;20701;-89
2020/12/13 01:48:57;;;;;;;1.67;1.20;;;5.30;97.30;;;;;;5028442;28;20214;-89
2020/12/13 01:51:35;;;;;;;1.93;1.57;;;5.30;97.40;;;;;;5021662;28;20313;-89
2020/12/13 01:54:04;;;;;;;1.57;1.47;;;5.30;97.60;;;;;;5029174;28;20264;-89
2020/12/13 01:56:33;;;;;;;1.50;1.40;;;5.40;97.80;;;;;;5024381;28;20227;-89
2020/12/13 01:59:02;;;;;;;1.17;1.13;;;5.40;97.60;;;;;;5026354;28;20203;-89
2020/12/13 02:01:31;;;;;;;2.00;1.90;;;5.40;97.60;;;;;;5022517;28;20230;-88
2020/12/13 02:03:59;;;;;;;2.33;1.10;;;5.40;97.50;;;;;;5019488;28;20217;-88
2020/12/13 02:06:30;;;;;;;1.40;1.30;;;5.40;97.40;;;;;;5026382;28;20714;-88
2020/12/13 02:08:56;;;;;;;1.50;1.20;;;5.40;97.20;;;;;;5027392;28;20724;-88
2020/12/13 02:11:23;;;;;;;1.97;1.87;;;5.40;97.20;;;;;;5024931;28;20570;-89
2020/12/13 02:13:51;;;;;;;1.40;1.30;;;5.40;97.40;;;;;;5022580;28;20214;-88
2020/12/13 02:16:19;;;;;;;1.93;1.83;;;5.40;97.30;;;;;;5018342;28;20217;-89
2020/12/13 02:18:47;;;;;;;1.87;1.77;;;5.30;97.50;;;;;;5010961;28;20211;-90
2020/12/13 02:21:13;;;;;;;1.23;1.13;;;5.40;97.50;;;;;;5024089;28;20598;-87
2020/12/13 02:23:41;;;;;;;1.30;1.20;;;5.40;97.50;;;;;;5025847;28;20658;-88
2020/12/13 02:26:08;;;;;;;1.73;1.63;;;5.40;97.50;;;;;;5017493;28;20583;-89
2020/12/13 02:28:35;;;;;;;1.50;1.40;;;5.40;97.50;;;;;;5015762;28;20576;-89
2020/12/13 02:31:03;;;;;;;2.00;1.30;;;5.40;97.50;;;;;;5022619;28;20224;-88
2020/12/13 02:33:29;;;;;;;1.50;1.40;;;5.40;97.60;;;;;;5020263;28;20681;-88
2020/12/13 02:35:56;;;;;;;1.53;1.43;;;5.40;97.80;;;;;;5022201;28;20207;-88
2020/12/13 02:38:22;;;;;;;3.57;1.40;;;5.40;97.70;;;;;;5020886;28;20229;-88
2020/12/13 02:40:50;;;;;;;1.30;1.20;;;5.40;97.80;;;;;;5025453;28;20211;-88
2020/12/13 02:43:16;;;;;;;1.60;1.50;;;5.40;97.80;;;;;;5023882;28;20230;-88
2020/12/13 02:45:43;;;;;;;1.50;1.40;;;5.40;97.80;;;;;;5023142;28;20215;-88
2020/12/13 02:48:09;;;;;;;1.80;1.70;;;5.40;97.60;;;;;;5017477;28;20261;-89
2020/12/13 02:50:36;;;;;;;1.50;1.40;;;5.50;97.80;;;;;;5013772;28;20214;-89
2020/12/13 02:53:02;;;;;;;1.90;1.80;;;5.50;97.70;;;;;;5022050;28;20352;-89
2020/12/13 02:55:29;;;;;;;1.93;1.70;;;5.50;97.60;;;;;;5011487;28;20831;-90
2020/12/13 02:57:56;;;;;;;1.53;1.43;;;5.50;97.80;;;;;;5015098;28;20232;-88
2020/12/13 03:00:22;;;;;;;1.90;1.80;;;5.50;97.80;;;;;;5020631;28;20222;-91
2020/12/13 03:02:49;;;;;;;1.37;1.27;;;5.50;98.00;;;;;;5021426;28;20225;-88
2020/12/13 03:05:15;;;;;;;1.43;1.33;;;5.40;98.10;;;;;;5030241;28;20210;-89
2020/12/13 03:07:42;;;;;;;1.60;1.50;;;5.50;97.90;;;;;;5020787;28;20226;-88
2020/12/13 03:10:08;;;;;;;2.00;1.90;;;5.50;98.00;;;;;;5023426;28;20234;-89
2020/12/13 03:12:35;;;;;;;1.50;1.40;;;5.50;98.10;;;;;;5024501;28;20685;-88
2020/12/13 03:15:02;;;;;;;1.50;1.40;;;5.50;97.90;;;;;;5027109;28;20233;-89
2020/12/13 03:17:30;;;;;;;1.60;1.50;;;5.40;98.20;;;;;;5022610;28;20218;-90
2020/12/13 03:19:56;;;;;;;1.80;1.70;;;5.40;98.50;;;;;;5027417;28;20206;-88
2020/12/13 03:22:23;;;;;;;1.60;1.50;;;5.40;98.30;;;;;;5024835;28;20228;-88
2020/12/13 03:24:49;;;;;;;1.57;1.47;;;5.50;98.20;;;;;;5026037;28;20234;-89
2020/12/13 03:27:15;;;;;;;1.50;1.33;;;5.50;98.20;;;;;;5024695;28;20230;-89
2020/12/13 03:29:45;;;;;;;1.50;1.40;;;5.40;98.20;;;;;;5026844;28;20264;-88
2020/12/13 03:32:12;;;;;;;1.50;1.40;;;5.50;98.50;;;;;;5021829;28;20626;-89
2020/12/13 03:34:39;;;;;;;2.53;1.50;;;5.50;98.20;;;;;;5025319;28;20717;-88
2020/12/13 03:37:05;;;;;;;1.30;1.20;;;5.60;98.00;;;;;;5026945;28;20613;-88
2020/12/13 03:39:31;;;;;;;1.20;1.20;;;5.60;97.80;;;;;;5024818;28;20208;-88
2020/12/13 03:41:58;;;;;;;1.60;1.50;;;5.50;98.00;;;;;;5020421;28;20230;-89
2020/12/13 03:44:24;;;;;;;1.60;1.50;;;5.60;98.10;;;;;;5026650;28;20207;-88
2020/12/13 03:46:51;;;;;;;1.40;1.30;;;5.60;97.90;;;;;;5023906;28;20224;-88
2020/12/13 03:49:18;;;;;;;1.50;1.40;;;5.60;97.80;;;;;;5027386;28;20217;-88
2020/12/13 03:51:45;;;;;;;1.60;1.50;;;5.60;97.90;;;;;;5025303;28;20271;-89
2020/12/13 03:54:11;;;;;;;1.13;1.13;;;5.60;97.90;;;;;;5023095;28;20676;-88
2020/12/13 03:56:37;;;;;;;1.43;1.30;;;5.60;98.00;;;;;;5026075;28;20252;-88
2020/12/13 03:59:04;;;;;;;1.67;1.40;;;5.70;97.90;;;;;;5026543;28;20199;-87
2020/12/13 04:01:31;;;;;;;1.73;1.63;;;5.60;97.80;;;;;;5023690;28;20230;-88
2020/12/13 04:03:57;;;;;;;1.43;1.33;;;5.60;97.50;;;;;;5025318;28;20394;-88
2020/12/13 04:06:24;;;;;;;1.60;1.50;;;5.50;97.80;;;;;;5029796;28;20233;-88
2020/12/13 04:08:51;;;;;;;1.40;1.30;;;5.60;98.00;;;;;;5020703;28;20625;-87
2020/12/13 04:11:17;;;;;;;1.50;1.40;;;5.60;98.00;;;;;;5023939;28;20293;-88
2020/12/13 04:13:43;;;;;;;1.80;1.70;;;5.50;98.10;;;;;;5022998;28;20289;-88
2020/12/13 04:16:12;;;;;;;1.70;1.60;;;5.60;98.30;;;;;;5023989;28;20289;-87
2020/12/13 04:18:38;;;;;;;1.77;1.67;;;5.60;98.30;;;;;;5025125;28;20202;-89
2020/12/13 04:21:05;;;;;;;1.57;1.47;;;5.60;98.50;;;;;;5013660;28;20233;-88
2020/12/13 04:23:32;;;;;;;2.40;1.57;;;5.60;98.50;;;;;;5021076;28;20261;-88
2020/12/13 04:25:59;;;;;;;2.20;1.67;;;5.60;98.30;;;;;;5020293;28;20565;-87
2020/12/13 04:28:25;;;;;;;1.27;1.23;;;5.60;98.10;;;;;;5025776;28;20237;-87
2020/12/13 04:30:52;;;;;;;1.50;1.40;;;5.50;98.30;;;;;;5029520;28;20325;-89
2020/12/13 04:33:18;;;;;;;2.00;1.80;;;5.50;98.60;;;;;;5025614;28;20337;-90
2020/12/13 04:35:45;;;;;;;1.80;1.70;;;5.60;98.60;;;;;;5030444;28;20203;-88
2020/12/13 04:38:14;;;;;;;1.77;1.67;;;5.50;98.50;;;;;;5025000;28;20229;-89
2020/12/13 04:40:41;;;;;;;1.90;1.80;;;5.50;98.70;;;;;;5028154;28;20207;-89
2020/12/13 04:43:08;;;;;;;2.70;1.60;;;5.40;98.90;;;;;;5029314;28;20230;-89
2020/12/13 04:45:35;;;;;;;2.17;1.93;;;5.50;98.80;;;;;;5028582;28;20202;-89
2020/12/13 04:48:05;;;;;;;2.03;1.93;;;5.40;98.90;;;;;;5024518;28;20218;-90
2020/12/13 04:50:33;;;;;;;4.07;2.23;;;5.50;99.10;;;;;;5025343;28;20222;-89
2020/12/13 04:53:06;;;;;;;1.80;1.70;;;5.50;98.90;;;;;;5022900;28;20326;-89
2020/12/13 04:55:38;;;;;;;2.00;1.90;;;5.60;98.80;;;;;;5023819;28;20572;-90
2020/12/13 04:58:12;;;;;;;3.17;1.90;;;5.60;98.40;;;;;;5014586;28;20226;-90
2020/12/13 05:00:43;;;;;;;2.90;2.03;;;5.60;98.50;;;;;;5024678;28;20258;-90
2020/12/13 05:03:13;;;;;;;1.80;1.70;;;5.50;98.40;;;;;;5023494;28;20232;-89
2020/12/13 05:05:41;;;;;;;2.00;1.90;;;5.50;98.50;;;;;;5026654;28;20234;-90
2020/12/13 05:08:08;;;;;;;2.13;1.90;;;5.50;98.80;;;;;;5023763;28;20226;-89
2020/12/13 05:10:38;;;;;;;3.33;2.70;;;5.50;98.80;;;;;;5021680;28;20313;-90
2020/12/13 05:13:06;;;;;;;1.87;1.77;;;5.50;98.90;;;;;;5029085;28;20230;-89
2020/12/13 05:15:34;;;;;;;2.87;2.60;;;5.60;98.80;;;;;;5021635;28;20202;-89
2020/12/13 05:18:04;;;;;;;1.93;1.83;;;5.60;98.80;;;;;;5025718;28;20226;-90
2020/12/13 05:20:31;;;;;;;2.37;2.17;;;5.60;98.80;;;;;;5021701;28;20337;-89
2020/12/13 05:23:01;;;;;;;2.40;2.13;;;5.60;98.60;;;;;;5022576;28;20230;-90
2020/12/13 05:25:32;;;;;;;3.00;2.30;;;5.70;98.50;;;;;;5028215;28;20214;-88
2020/12/13 05:28:01;;;;;;;3.07;2.87;;;5.70;98.50;;;;;;5022506;28;20219;-89
2020/12/13 05:30:33;;;;;;;3.50;3.20;;;5.70;98.60;;;;;;5013973;28;20218;-90
2020/12/13 05:33:09;;;;;;;3.10;2.90;;;5.60;98.60;;;;;;5010181;28;20319;-90
2020/12/13 05:35:35;;;;;;;3.60;3.30;;;5.60;98.70;;;;;;5009601;28;20292;-89
2020/12/13 05:38:11;;;;;;;3.47;3.17;;;5.50;99.20;;;;;;5011196;28;20740;-88
2020/12/13 05:40:41;;;;;;;3.90;3.53;;;5.40;99.20;;;;;;5011740;28;20218;-89
2020/12/13 05:43:12;;;;;;;3.87;3.47;;;5.50;99.70;;;;;;5008778;28;20409;-88
2020/12/13 05:53:53;;;;;;;4.40;4.00;;;5.50;99.60;;;;;;5004243;28;20242;-89
2020/12/13 05:56:23;;;;;;;4.50;4.00;;;5.50;99.60;;;;;;5007575;28;20662;-90
2020/12/13 05:58:51;;;;;;;4.43;3.93;;;5.50;99.60;;;;;;5008291;28;20230;-88
2020/12/13 06:01:23;;;;;;;5.43;4.93;;;5.50;99.70;;;;;;5002245;28;20218;-90
2020/12/13 06:03:51;;;;;;;3.90;3.60;;;5.50;99.90;;;;;;5021591;28;21234;-89
2020/12/13 06:06:22;;;;;;;4.87;4.37;;;5.50;99.90;;;;;;5009950;28;20210;-89
2020/12/13 06:09:08;;;;;;;4.27;3.87;;;5.50;99.60;;;;;;5009338;28;20670;-90
2020/12/13 06:11:46;;;;;;;4.03;3.63;;;5.40;99.70;;;;;;5008762;28;20230;-89
2020/12/13 06:14:18;;;;;;;4.20;3.80;;;5.50;99.80;;;;;;5010388;28;20221;-89
2020/12/13 06:16:47;;;;;;;4.10;3.70;;;5.60;99.40;;;;;;5008811;28;20234;-89
2020/12/13 06:19:15;;;;;;;3.87;3.57;;;5.60;99.20;;;;;;5011297;28;20221;-90
2020/12/13 06:21:45;;;;;;;4.87;4.23;;;5.60;99.20;;;;;;5007055;28;20226;-89
2020/12/13 06:24:12;;;;;;;4.23;3.77;;;5.50;99.30;;;;;;5008443;28;20248;-89
2020/12/13 06:26:39;;;;;;;3.93;3.63;;;5.50;99.60;;;;;;5008605;28;20230;-91
2020/12/13 06:29:09;;;;;;;4.43;3.73;;;5.50;99.60;;;;;;5010287;28;20308;-91
2020/12/13 06:31:37;;;;;;;4.63;4.23;;;5.50;99.70;;;;;;5008515;28;20802;-88
2020/12/13 06:34:08;;;;;;;4.43;4.03;;;5.50;99.40;;;;;;5011063;28;20329;-89
2020/12/13 06:36:36;;;;;;;4.40;4.00;;;5.50;99.60;;;;;;5000275;28;20233;-90
2020/12/13 06:39:07;;;;;;;3.87;3.43;;;5.60;99.70;;;;;;5011210;28;20213;-89
2020/12/13 06:41:38;;;;;;;4.60;4.13;;;5.60;99.70;;;;;;5007675;28;20210;-89
2020/12/13 06:44:06;;;;;;;4.27;3.87;;;5.60;99.60;;;;;;5012424;28;20665;-88
2020/12/13 06:46:38;;;;;;;5.33;4.83;;;5.50;99.80;;;;;;5008734;28;20222;-89
2020/12/13 06:49:06;;;;;;;4.23;3.77;;;5.50;99.90;;;;;;5010006;28;20752;-89
2020/12/13 06:51:34;;;;;;;4.40;4.00;;;5.60;99.90;;;;;;5008159;28;20238;-89
2020/12/13 06:54:03;;;;;;;4.47;3.53;;;5.60;99.90;;;;;;5015401;28;20552;-88
2020/12/13 06:56:30;;;;;;;4.47;4.07;;;5.60;99.70;;;;;;5016682;28;20237;-89
2020/12/13 06:59:01;;;;;;;4.47;4.07;;;5.60;99.80;;;;;;5007624;28;20894;-88
2020/12/13 07:01:32;;;;;;;4.63;4.23;;;5.50;99.70;;;;;;5009406;28;20218;-90
2020/12/13 07:04:33;;;;;;;5.10;4.63;;;5.60;99.90;;;;;;5009373;28;20325;-88
2020/12/13 07:07:01;;;;;;;4.30;3.90;;;5.50;99.90;;;;;;5018379;28;20234;-89
2020/12/13 07:09:30;;;;;;;4.33;3.90;;;5.50;99.90;;;;;;5024335;28;20199;-89
2020/12/13 07:12:00;;;;;;;3.90;3.57;;;5.50;99.90;;;;;;5023559;28;20236;-89
2020/12/13 07:14:32;;;;;;;4.67;4.27;;;5.40;99.90;;;;;;5019110;28;20281;-91
2020/12/13 07:17:04;;;;;;;5.50;4.40;;;5.50;99.90;;;;;;5010444;28;20649;-89
2020/12/13 07:19:32;;;;;;;5.13;4.40;;;5.50;99.90;;;;;;5006196;28;20206;-90
2020/12/13 07:22:01;;;;;;;4.50;4.10;;;5.60;99.90;;;;;;5013902;28;20268;-90
2020/12/13 07:24:28;;;;;;;4.70;4.30;;;5.70;99.90;;;;;;5014151;28;20209;-90
2020/12/13 07:26:56;;;;;;;4.27;3.90;;;5.60;99.90;;;;;;5016727;28;20323;-90
2020/12/13 07:29:23;;;;;;;4.40;4.00;;;5.60;99.90;;;;;;5016979;28;20230;-89
2020/12/13 07:31:51;;;;;;;4.90;4.50;;;5.60;99.90;;;;;;5016423;28;20272;-89
2020/12/13 07:34:18;;;;;;;4.73;4.30;;;5.60;99.90;;;;;;5011330;28;20211;-89
2020/12/13 07:36:46;;;;;;;5.67;4.10;;;5.50;99.90;;;;;;5023785;28;20240;-90
2020/12/13 07:39:14;;;;;;;4.80;4.33;;;5.60;99.90;;;;;;5016626;28;20265;-90
2020/12/13 07:41:41;;;;;;;6.60;4.57;;;5.60;99.90;;;;;;5020915;28;20593;-90
2020/12/13 07:44:11;;;;;;;5.10;4.37;;;5.70;99.90;;;;;;5025281;28;20206;-89
2020/12/13 07:46:39;;;;;;;4.00;3.60;;;5.80;99.90;;;;;;5019273;28;20259;-90
2020/12/13 07:49:09;;;;;;;5.23;4.63;;;5.90;99.50;;;;;;5020610;28;20257;-90
2020/12/13 07:51:37;;;;;;;5.60;5.00;;;5.90;99.40;;;;;;5024171;28;20289;-90
2020/12/13 07:54:16;;;;;;;4.20;3.80;;;6.00;99.40;;;;;;5021886;28;20564;-89
2020/12/13 07:56:43;;;;;;;4.67;4.20;;;5.90;99.10;;;;;;5024384;28;20711;-89
2020/12/13 07:59:12;;;;;;;4.30;3.90;;;5.80;99.30;;;;;;5020800;28;20225;-89
2020/12/13 08:01:43;;;;;;;5.03;4.53;;;5.90;99.10;;;;;;5011074;28;20258;-90
2020/12/13 08:04:10;;;;;;;5.37;4.20;;;5.90;98.80;;;;;;5018760;28;20213;-88
2020/12/13 08:06:36;;;;;;;5.30;4.50;;;5.90;99.00;;;;;;5027233;28;20227;-88
2020/12/13 08:09:18;;;;;;;5.30;4.77;;;5.90;98.80;;;;;;5034196;28;20570;-89
2020/12/13 08:11:45;;;;;;;5.57;4.50;;;6.00;99.30;;;;;;5032363;28;20230;-86
2020/12/13 08:14:12;;;;;;;4.90;4.43;;;6.00;99.10;;;;;;5025409;28;20203;-88
2020/12/13 08:16:40;;;;;;;4.90;4.30;;;5.90;99.00;;;;;;5029358;28;20240;-88
2020/12/13 08:19:13;;;;;;;4.77;4.27;;;5.90;99.20;;;;;;5031362;28;20213;-89
2020/12/13 08:21:46;;;;;;;4.07;3.73;;;5.90;99.30;;;;;;5037999;28;20226;-87
2020/12/13 08:24:18;;;;;;;5.00;4.50;;;6.00;99.00;;;;;;5034314;28;20309;-90
2020/12/13 08:26:46;;;;;;;4.47;4.07;;;6.00;98.90;;;;;;5033302;28;20218;-89
2020/12/13 08:29:24;;;;;;;4.43;4.00;;;6.00;98.60;;;;;;5029949;28;20205;-89
2020/12/13 08:31:51;;;;;;;5.03;4.30;;;6.00;98.70;;;;;;5024242;28;20222;-90
2020/12/13 08:34:24;;;;;;;5.33;4.20;;;6.10;98.90;;;;;;5031816;28;20195;-87
2020/12/13 08:36:54;;;;;;;4.33;3.93;;;6.10;98.80;;;;;;5039971;28;20224;-90
2020/12/13 08:40:13;;;;;;;3.67;3.30;;;6.20;98.60;;;;;;5058043;28;20260;-90
2020/12/13 08:42:44;;;;;;;3.90;3.60;;;6.20;98.40;;;;;;5036215;28;20224;-91
2020/12/13 08:45:12;;;;;;;4.20;3.80;;;6.20;98.00;;;;;;5032986;28;20204;-88
2020/12/13 08:47:39;;;;;;;4.00;3.60;;;6.10;98.20;;;;;;5034185;28;20309;-90
2020/12/13 08:50:18;;;;;;;3.97;3.57;;;6.20;98.20;;;;;;5037075;28;20206;-88
2020/12/13 08:52:45;;;;;;;4.00;3.60;;;6.20;97.80;;;;;;5025916;28;20223;-90
2020/12/13 08:55:25;;;;;;;4.00;3.60;;;6.30;97.70;;;;;;5032601;28;20209;-91
2020/12/13 08:57:59;;;;;;;3.60;3.30;;;6.40;97.70;;;;;;5025876;28;20234;-88
2020/12/13 09:00:27;;;;;;;3.63;3.33;;;6.30;97.30;;;;;;5033417;28;20230;-91
2020/12/13 09:02:58;;;;;;;4.43;3.30;;;6.20;97.10;;;;;;5030352;28;20230;-90
2020/12/13 09:05:26;;;;;;;3.67;3.37;;;6.20;97.40;;;;;;5036347;28;20194;-91
2020/12/13 09:07:53;;;;;;;4.53;3.60;;;6.20;97.80;;;;;;5034407;28;20685;-89
2020/12/13 09:10:20;;;;;;;4.03;3.13;;;6.20;98.00;;;;;;5035684;28;20212;-89
2020/12/13 09:12:46;;;;;;;3.83;3.20;;;6.20;98.10;;;;;;5036361;28;20594;-89
2020/12/13 09:15:15;;;;;;;3.83;2.87;;;6.20;98.30;;;;;;5043005;28;20211;-88
2020/12/13 09:17:52;;;;;;;3.87;3.20;;;6.30;98.50;;;;;;5029600;28;20218;-89
2020/12/13 09:20:24;;;;;;;3.47;3.17;;;6.40;98.00;;;;;;5033985;28;20205;-88
2020/12/13 09:23:10;;;;;;;3.10;2.80;;;6.20;97.60;;;;;;5031511;28;20228;-87
2020/12/13 09:25:38;;;;;;;3.20;2.90;;;6.20;97.70;;;;;;5030106;28;20199;-87
2020/12/13 09:28:05;;;;;;;4.20;3.00;;;6.30;97.90;;;;;;5022767;28;20221;-87
2020/12/13 09:30:33;;;;;;;4.03;3.00;;;6.40;97.80;;;;;;5024588;28;20194;-88
2020/12/13 09:32:59;;;;;;;3.20;2.90;;;6.50;97.30;;;;;;5025043;28;20230;-88
2020/12/13 09:35:29;;;;;;;3.30;3.00;;;6.40;97.00;;;;;;5029003;28;20198;-87
2020/12/13 09:37:58;;;;;;;3.77;3.00;;;6.40;97.10;;;;;;5024153;28;20232;-89
2020/12/13 09:40:25;;;;;;;3.10;2.80;;;6.40;97.20;;;;;;5024830;28;20206;-89
2020/12/13 09:42:53;;;;;;;3.43;3.00;;;6.40;97.20;;;;;;5026336;28;20234;-87
2020/12/13 09:45:19;;;;;;;3.93;3.03;;;6.40;97.00;;;;;;5023375;28;20203;-87
2020/12/13 09:47:47;;;;;;;2.73;2.53;;;6.40;97.10;;;;;;5025211;28;20264;-91
2020/12/13 09:50:13;;;;;;;3.30;3.00;;;6.40;96.50;;;;;;5020573;28;20202;-91
2020/12/13 09:52:40;;;;;;;2.80;2.37;;;6.40;96.50;;;;;;5025615;28;20238;-89
2020/12/13 09:55:07;;;;;;;3.03;2.70;;;6.40;96.70;;;;;;5027294;28;20534;-89
2020/12/13 09:57:33;;;;;;;3.20;2.90;;;6.30;96.90;;;;;;5024806;28;20223;-90
2020/12/13 10:00:00;;;;;;;3.13;2.57;;;6.20;97.00;;;;;;5027286;28;20230;-91
2020/12/13 10:02:26;;;;;;;3.60;2.90;;;6.20;97.50;;;;;;5025911;28;20280;-89
2020/12/13 10:04:54;;;;;;;2.70;2.47;;;6.30;97.60;;;;;;5023861;28;20301;-90
2020/12/13 10:07:33;;;;;;;4.63;2.70;;;6.20;97.40;;;;;;5024989;28;20308;-92
2020/12/13 10:09:59;;;;;;;3.10;2.80;;;6.20;97.30;;;;;;5019351;28;20645;-90
2020/12/13 10:12:25;;;;;;;2.70;2.50;;;6.10;97.90;;;;;;5018497;28;20233;-89
2020/12/13 10:14:52;;;;;;;2.40;2.20;;;6.00;98.20;;;;;;5021809;28;20560;-87
2020/12/13 10:17:19;;;;;;;4.27;2.93;;;6.10;98.60;;;;;;5020777;28;20245;-88
2020/12/13 10:19:45;;;;;;;4.27;2.70;;;6.00;98.10;;;;;;5019571;28;20194;-88
2020/12/13 10:22:12;;;;;;;2.70;2.30;;;6.00;98.50;;;;;;5020481;28;20784;-88
2020/12/13 10:24:39;;;;;;;3.20;2.90;;;6.10;98.20;;;;;;5019312;28;20203;-89
2020/12/13 10:27:06;;;;;;;2.60;2.30;;;6.10;98.20;;;;;;5026673;28;20588;-89
2020/12/13 10:29:33;;;;;;;3.87;2.40;;;6.10;97.90;;;;;;5025322;28;20205;-89
2020/12/13 10:31:59;;;;;;;2.73;2.30;;;6.20;98.20;;;;;;5025667;28;20222;-88
2020/12/13 10:34:26;;;;;;;3.00;2.40;;;6.30;98.00;;;;;;5024932;28;20205;-87
2020/12/13 10:36:54;;;;;;;2.30;2.10;;;6.30;97.90;;;;;;5032630;28;20230;-91
2020/12/13 10:39:22;;;;;;;2.23;2.10;;;6.40;97.10;;;;;;5043790;28;20637;-89
2020/12/13 10:41:51;;;;;;;3.50;2.40;;;6.50;96.70;;;;;;5026285;28;20238;-90
2020/12/13 10:44:19;;;;;;;2.60;2.40;;;6.50;96.60;;;;;;5026906;28;20201;-91
2020/12/13 10:46:45;;;;;;;2.70;2.33;;;6.40;96.80;;;;;;5021661;28;20230;-90
2020/12/13 10:49:12;;;;;;;2.20;2.00;;;6.50;97.00;;;;;;5035415;28;20208;-89
2020/12/13 10:51:38;;;;;;;2.90;1.90;;;6.60;96.60;;;;;;5031722;28;20226;-90
2020/12/13 10:54:05;;;;;;;3.53;1.87;;;6.70;96.00;;;;;;5035022;28;20565;-89
2020/12/13 10:56:32;;;;;;;2.93;1.93;;;6.80;95.40;;;;;;5034095;28;20233;-89
2020/12/13 10:58:58;;;;;;;2.57;1.70;;;6.70;95.40;;;;;;5029174;28;20198;-91
2020/12/13 11:01:25;;;;;;;2.30;2.10;;;6.70;95.40;;;;;;5030861;28;20226;-91
2020/12/13 11:03:51;;;;;;;1.93;1.83;;;6.70;95.40;;;;;;5030299;28;20252;-89
2020/12/13 11:06:18;;;;;;;2.37;2.10;;;6.80;95.40;;;;;;5024701;28;20377;-89
2020/12/13 11:08:44;;;;;;;2.03;1.93;;;6.80;95.40;;;;;;5025069;28;20790;-85
2020/12/13 11:11:10;;;;;;;2.37;2.13;;;6.80;95.30;;;;;;5021742;28;20694;-86
2020/12/13 11:13:38;;;;;;;2.37;2.17;;;6.80;95.00;;;;;;5022096;28;20209;-83
2020/12/13 11:16:04;;;;;;;2.93;1.97;;;6.70;95.00;;;;;;5027639;28;20210;-86
2020/12/13 11:18:32;;;;;;;2.20;1.80;;;6.70;95.40;;;;;;5024322;28;20347;-87
2020/12/13 11:20:58;;;;;;;2.07;1.87;;;6.70;95.40;;;;;;5021172;28;20210;-85
2020/12/13 11:23:25;;;;;;;2.07;1.87;;;6.70;95.40;;;;;;5030135;28;20254;-89
2020/12/13 11:25:54;;;;;;;2.40;1.93;;;6.80;95.40;;;;;;5033339;28;20700;-87
2020/12/13 11:28:21;;;;;;;3.77;2.23;;;7.00;95.30;;;;;;5035027;28;20214;-87
2020/12/13 11:30:48;;;;;;;4.43;3.27;;;7.00;94.70;;;;;;5031916;28;20543;-87
2020/12/13 11:33:15;;;;;;;2.20;1.70;;;7.00;94.30;;;;;;5029057;28;20218;-86
2020/12/13 11:35:41;;;;;;;1.90;1.80;;;7.00;94.60;;;;;;5033366;28;20241;-86
2020/12/13 11:38:07;;;;;;;2.10;1.70;;;6.90;94.60;;;;;;5034971;28;20238;-86
2020/12/13 11:40:34;;;;;;;1.90;1.73;;;6.80;95.00;;;;;;5032789;28;20195;-86
2020/12/13 11:43:00;;;;;;;2.20;1.53;;;6.80;95.10;;;;;;5036103;28;20235;-87
2020/12/13 11:45:27;;;;;;;2.00;1.80;;;6.70;95.40;;;;;;5036521;28;20665;-87
2020/12/13 11:47:54;;;;;;;1.70;1.60;;;6.70;95.40;;;;;;5032824;28;20234;-87
2020/12/13 11:50:21;;;;;;;3.17;2.03;;;6.70;95.40;;;;;;5029710;28;20203;-89
2020/12/13 11:52:47;;;;;;;2.83;2.40;;;6.70;95.40;;;;;;5037778;28;20658;-88
2020/12/13 11:55:14;;;;;;;2.10;1.77;;;6.90;95.50;;;;;;5042121;28;20207;-88
2020/12/13 11:57:40;;;;;;;2.10;1.90;;;6.90;95.70;;;;;;5035256;28;20218;-85
2020/12/13 12:00:06;;;;;;;3.00;2.17;;;6.80;95.40;;;;;;5029305;28;20228;-90
2020/12/13 12:02:33;;;;;;;2.60;2.13;;;6.70;95.80;;;;;;5030497;28;20711;-91
2020/12/13 12:05:01;;;;;;;5.93;4.60;;;6.60;96.20;;;;;;5036442;28;20209;-89
2020/12/13 12:07:27;;;;;;;3.30;2.03;;;6.60;95.90;;;;;;5033686;28;20237;-88
2020/12/13 12:09:55;;;;;;;4.20;3.80;;;6.60;96.00;;;;;;5035910;28;20206;-88
2020/12/13 12:12:21;;;;;;;2.10;1.80;;;6.50;96.60;;;;;;5029583;28;20230;-88
2020/12/13 12:14:47;;;;;;;2.70;1.93;;;6.70;96.30;;;;;;5036353;28;20203;-88
2020/12/13 12:17:14;;;;;;;2.03;1.80;;;6.70;96.00;;;;;;5035359;28;20227;-85
2020/12/13 12:19:40;;;;;;;3.10;2.30;;;6.70;96.00;;;;;;5027990;28;20195;-87
2020/12/13 12:22:07;;;;;;;2.67;2.20;;;6.70;96.10;;;;;;5023398;28;21055;-87
2020/12/13 12:24:34;;;;;;;1.97;1.83;;;6.70;96.00;;;;;;5028846;28;20194;-89
2020/12/13 12:27:01;;;;;;;2.50;2.20;;;6.80;95.60;;;;;;5036469;28;20234;-87
2020/12/13 12:29:28;;;;;;;2.60;2.00;;;6.80;95.80;;;;;;5031703;28;20245;-87
2020/12/13 12:31:55;;;;;;;1.87;1.67;;;6.70;96.10;;;;;;5035594;28;20317;-86
2020/12/13 12:34:22;;;;;;;2.10;2.00;;;6.70;96.20;;;;;;5035616;28;20198;-87
2020/12/13 12:36:48;;;;;;;2.17;1.97;;;6.60;96.10;;;;;;5035587;28;20226;-86
2020/12/13 12:39:16;;;;;;;2.20;2.00;;;6.50;96.30;;;;;;5036495;28;20202;-86
2020/12/13 12:41:42;;;;;;;2.30;2.10;;;6.50;97.00;;;;;;5033726;28;20237;-86
2020/12/13 12:44:08;;;;;;;3.27;2.30;;;6.40;97.60;;;;;;5033406;28;20221;-84
2020/12/13 12:46:35;;;;;;;2.40;2.20;;;6.40;97.70;;;;;;5030673;28;20226;-87
2020/12/13 12:49:02;;;;;;;2.10;1.90;;;6.40;97.80;;;;;;5037119;28;20210;-84
2020/12/13 12:51:28;;;;;;;2.90;2.17;;;6.50;97.80;;;;;;5035278;28;20234;-86
2020/12/13 12:53:55;;;;;;;2.63;2.17;;;6.40;97.70;;;;;;5035008;28;20226;-85
2020/12/13 12:56:22;;;;;;;2.40;2.20;;;6.50;98.00;;;;;;5035984;28;20198;-85
2020/12/13 12:58:51;;;;;;;2.27;2.07;;;6.40;98.00;;;;;;5033474;28;20214;-86
2020/12/13 13:01:27;;;;;;;2.97;2.50;;;6.50;97.80;;;;;;5036461;28;20217;-87
2020/12/13 13:03:59;;;;;;;2.53;2.20;;;6.60;97.60;;;;;;5035398;28;20210;-85
2020/12/13 13:09:14;;;;;;;2.87;2.20;;;6.40;97.40;;;;;;5030080;28;20726;-86
2020/12/13 13:11:42;;;;;;;3.43;2.10;;;6.50;97.50;;;;;;5042911;28;20301;-86
2020/12/13 13:14:10;;;;;;;3.60;2.20;;;6.50;97.20;;;;;;5036639;28;20203;-86